sensor_id;sensor_type;location;lat;lon;timestamp;noise_LAeq;noise_LA_min;noise_LA_max;noise_LA01;noise_LA95
63692;Laerm;49838;51.798;10.954;2023-05-07T00:00:04;42.81;31.66;57.69;;
63692;Laerm;49838;51.798;10.954;2023-05-07T00:02:35;41.89;36.05;59.04;;
63692;Laerm;49838;51.798;10.954;2023-05-07T00:05:03;44.43;35.92;60.03;;
63692;Laerm;49838;51.798;10.954;2023-05-07T00:07:31;38.71;31.24;49.13;;
63692;Laerm;49838;51.798;10.954;2023-05-07T00:09:58;36.35;30.47;54.74;;
63692;Laerm;49838;51.798;10.954;2023-05-07T00:12:25;40.90;30.17;60.26;;
63692;Laerm;49838;51.798;10.954;2023-05-07T00:14:53;37.60;31.27;54.32;;
63692;Laerm;49838;51.798;10.954;2023-05-07T00:17:20;37.65;30.80;52.98;;
63692;Laerm;49838;51.798;10.954;2023-05-07T00:19:49;40.26;30.25;62.68;;
63692;Laerm;49838;51.798;10.954;2023-05-07T00:22:16;36.53;30.81;56.52;;
63692;Laerm;49838;51.798;10.954;2023-05-07T00:24:43;37.04;30.30;53.21;;
63692;Laerm;49838;51.798;10.954;2023-05-07T00:27:10;41.19;33.77;60.07;;
63692;Laerm;49838;51.798;10.954;2023-05-07T00:29:38;47.69;30.12;71.73;;
63692;Laerm;49838;51.798;10.954;2023-05-07T00:32:05;43.27;31.28;65.85;;
63692;Laerm;49838;51.798;10.954;2023-05-07T00:34:33;36.31;30.61;52.85;;
63692;Laerm;49838;51.798;10.954;2023-05-07T00:37:01;40.07;30.79;65.18;;
63692;Laerm;49838;51.798;10.954;2023-05-07T00:39:29;38.99;31.88;55.72;;
63692;Laerm;49838;51.798;10.954;2023-05-07T00:41:56;53.27;30.57;71.23;;
63692;Laerm;49838;51.798;10.954;2023-05-07T00:44:23;39.54;30.10;58.81;;
63692;Laerm;49838;51.798;10.954;2023-05-07T00:46:51;39.85;30.51;57.96;;
63692;Laerm;49838;51.798;10.954;2023-05-07T00:49:18;33.40;29.53;43.11;;
63692;Laerm;49838;51.798;10.954;2023-05-07T00:51:46;32.02;28.33;45.71;;
63692;Laerm;49838;51.798;10.954;2023-05-07T00:54:15;34.90;28.47;53.28;;
63692;Laerm;49838;51.798;10.954;2023-05-07T00:56:42;35.10;28.74;55.16;;
63692;Laerm;49838;51.798;10.954;2023-05-07T00:59:10;51.19;30.05;70.22;;
63692;Laerm;49838;51.798;10.954;2023-05-07T01:01:38;39.49;30.92;59.08;;
63692;Laerm;49838;51.798;10.954;2023-05-07T01:04:05;36.84;29.82;52.45;;
63692;Laerm;49838;51.798;10.954;2023-05-07T01:06:33;32.41;28.15;55.33;;
63692;Laerm;49838;51.798;10.954;2023-05-07T01:09:00;33.51;28.22;52.92;;
63692;Laerm;49838;51.798;10.954;2023-05-07T01:11:31;36.42;30.16;48.35;;
63692;Laerm;49838;51.798;10.954;2023-05-07T01:13:59;34.37;28.44;57.99;;
63692;Laerm;49838;51.798;10.954;2023-05-07T01:16:27;33.07;29.26;50.80;;
63692;Laerm;49838;51.798;10.954;2023-05-07T01:18:54;32.27;28.51;44.03;;
63692;Laerm;49838;51.798;10.954;2023-05-07T01:21:25;37.22;28.87;55.61;;
63692;Laerm;49838;51.798;10.954;2023-05-07T01:23:54;35.56;28.15;49.89;;
63692;Laerm;49838;51.798;10.954;2023-05-07T01:26:22;38.25;28.59;53.04;;
63692;Laerm;49838;51.798;10.954;2023-05-07T01:28:49;33.43;29.10;41.41;;
63692;Laerm;49838;51.798;10.954;2023-05-07T01:31:17;33.85;30.22;47.56;;
63692;Laerm;49838;51.798;10.954;2023-05-07T01:33:45;35.39;30.07;53.09;;
63692;Laerm;49838;51.798;10.954;2023-05-07T01:36:17;35.40;29.81;52.26;;
63692;Laerm;49838;51.798;10.954;2023-05-07T01:38:45;37.18;29.70;51.79;;
63692;Laerm;49838;51.798;10.954;2023-05-07T01:41:14;37.32;29.47;50.33;;
63692;Laerm;49838;51.798;10.954;2023-05-07T01:43:42;37.28;28.23;52.09;;
63692;Laerm;49838;51.798;10.954;2023-05-07T01:46:10;40.45;29.00;66.22;;
63692;Laerm;49838;51.798;10.954;2023-05-07T01:48:38;33.39;28.39;49.82;;
63692;Laerm;49838;51.798;10.954;2023-05-07T01:51:05;32.91;28.17;54.44;;
63692;Laerm;49838;51.798;10.954;2023-05-07T01:53:35;37.08;28.90;54.95;;
63692;Laerm;49838;51.798;10.954;2023-05-07T01:56:03;40.77;29.13;61.53;;
63692;Laerm;49838;51.798;10.954;2023-05-07T01:58:32;36.08;28.36;52.28;;
63692;Laerm;49838;51.798;10.954;2023-05-07T02:00:59;34.96;28.24;50.31;;
63692;Laerm;49838;51.798;10.954;2023-05-07T02:03:27;33.80;28.78;49.08;;
63692;Laerm;49838;51.798;10.954;2023-05-07T02:05:54;49.39;29.09;64.86;;
63692;Laerm;49838;51.798;10.954;2023-05-07T02:08:21;38.13;29.02;53.63;;
63692;Laerm;49838;51.798;10.954;2023-05-07T02:10:48;40.04;28.33;64.35;;
63692;Laerm;49838;51.798;10.954;2023-05-07T02:13:16;38.21;31.26;54.36;;
63692;Laerm;49838;51.798;10.954;2023-05-07T02:15:44;36.94;30.19;52.79;;
63692;Laerm;49838;51.798;10.954;2023-05-07T02:18:16;37.25;29.52;52.75;;
63692;Laerm;49838;51.798;10.954;2023-05-07T02:20:43;36.05;29.09;48.57;;
63692;Laerm;49838;51.798;10.954;2023-05-07T02:23:11;48.68;29.19;65.33;;
63692;Laerm;49838;51.798;10.954;2023-05-07T02:25:38;36.62;29.05;49.68;;
63692;Laerm;49838;51.798;10.954;2023-05-07T02:28:05;36.94;29.12;51.10;;
63692;Laerm;49838;51.798;10.954;2023-05-07T02:30:33;37.41;30.17;54.99;;
63692;Laerm;49838;51.798;10.954;2023-05-07T02:33:01;38.03;29.91;50.81;;
63692;Laerm;49838;51.798;10.954;2023-05-07T02:35:28;40.17;29.92;57.44;;
63692;Laerm;49838;51.798;10.954;2023-05-07T02:37:56;46.29;30.95;61.73;;
63692;Laerm;49838;51.798;10.954;2023-05-07T02:40:23;48.45;33.33;61.94;;
63692;Laerm;49838;51.798;10.954;2023-05-07T02:42:51;50.44;32.43;64.71;;
63692;Laerm;49838;51.798;10.954;2023-05-07T02:45:18;50.50;32.24;67.42;;
63692;Laerm;49838;51.798;10.954;2023-05-07T02:47:45;55.09;32.04;69.70;;
63692;Laerm;49838;51.798;10.954;2023-05-07T02:50:14;55.87;32.14;71.03;;
63692;Laerm;49838;51.798;10.954;2023-05-07T02:52:41;58.57;33.34;74.56;;
63692;Laerm;49838;51.798;10.954;2023-05-07T02:55:09;56.05;33.42;72.57;;
63692;Laerm;49838;51.798;10.954;2023-05-07T02:57:36;55.33;34.02;73.60;;
63692;Laerm;49838;51.798;10.954;2023-05-07T03:00:11;56.94;33.95;73.72;;
63692;Laerm;49838;51.798;10.954;2023-05-07T03:02:38;54.70;34.24;71.62;;
63692;Laerm;49838;51.798;10.954;2023-05-07T03:05:06;49.65;33.01;65.68;;
63692;Laerm;49838;51.798;10.954;2023-05-07T03:07:35;48.81;34.30;61.99;;
63692;Laerm;49838;51.798;10.954;2023-05-07T03:10:03;50.25;35.13;66.36;;
63692;Laerm;49838;51.798;10.954;2023-05-07T03:12:31;56.82;36.00;75.11;;
63692;Laerm;49838;51.798;10.954;2023-05-07T03:14:58;52.23;34.52;65.48;;
63692;Laerm;49838;51.798;10.954;2023-05-07T03:17:25;50.04;36.81;62.80;;
63692;Laerm;49838;51.798;10.954;2023-05-07T03:19:52;55.52;35.18;72.45;;
63692;Laerm;49838;51.798;10.954;2023-05-07T03:22:20;53.35;34.83;69.55;;
63692;Laerm;49838;51.798;10.954;2023-05-07T03:24:48;46.54;35.00;60.57;;
63692;Laerm;49838;51.798;10.954;2023-05-07T03:27:16;52.82;35.82;70.47;;
63692;Laerm;49838;51.798;10.954;2023-05-07T03:29:43;44.08;34.70;56.50;;
63692;Laerm;49838;51.798;10.954;2023-05-07T03:32:10;43.37;34.57;64.17;;
63692;Laerm;49838;51.798;10.954;2023-05-07T03:34:38;41.80;32.65;53.47;;
63692;Laerm;49838;51.798;10.954;2023-05-07T03:37:05;43.47;33.47;54.72;;
63692;Laerm;49838;51.798;10.954;2023-05-07T03:39:33;43.28;32.48;58.63;;
63692;Laerm;49838;51.798;10.954;2023-05-07T03:42:01;44.86;33.09;61.00;;
63692;Laerm;49838;51.798;10.954;2023-05-07T03:44:29;45.53;34.49;59.68;;
63692;Laerm;49838;51.798;10.954;2023-05-07T03:46:56;50.34;34.66;66.36;;
63692;Laerm;49838;51.798;10.954;2023-05-07T03:49:24;50.38;32.90;66.12;;
63692;Laerm;49838;51.798;10.954;2023-05-07T03:51:51;53.66;33.38;74.56;;
63692;Laerm;49838;51.798;10.954;2023-05-07T03:54:18;47.61;34.59;62.47;;
63692;Laerm;49838;51.798;10.954;2023-05-07T03:56:45;54.99;33.23;71.50;;
63692;Laerm;49838;51.798;10.954;2023-05-07T03:59:14;40.85;34.33;55.95;;
63692;Laerm;49838;51.798;10.954;2023-05-07T04:01:41;54.10;33.92;73.56;;
63692;Laerm;49838;51.798;10.954;2023-05-07T04:04:08;41.79;33.24;66.62;;
63692;Laerm;49838;51.798;10.954;2023-05-07T04:06:36;42.16;31.41;57.86;;
63692;Laerm;49838;51.798;10.954;2023-05-07T04:09:03;43.34;32.18;60.71;;
63692;Laerm;49838;51.798;10.954;2023-05-07T04:11:30;40.60;31.80;58.93;;
63692;Laerm;49838;51.798;10.954;2023-05-07T04:13:57;39.40;32.52;53.62;;
63692;Laerm;49838;51.798;10.954;2023-05-07T04:16:26;55.47;33.55;75.60;;
63692;Laerm;49838;51.798;10.954;2023-05-07T04:18:53;41.39;32.60;57.56;;
63692;Laerm;49838;51.798;10.954;2023-05-07T04:21:20;40.69;33.32;51.92;;
63692;Laerm;49838;51.798;10.954;2023-05-07T04:23:48;49.89;33.85;66.69;;
63692;Laerm;49838;51.798;10.954;2023-05-07T04:26:16;43.16;34.08;56.66;;
63692;Laerm;49838;51.798;10.954;2023-05-07T04:28:43;52.72;33.85;71.69;;
63692;Laerm;49838;51.798;10.954;2023-05-07T04:31:10;43.13;33.25;59.50;;
63692;Laerm;49838;51.798;10.954;2023-05-07T04:33:39;44.43;33.04;59.64;;
63692;Laerm;49838;51.798;10.954;2023-05-07T04:36:07;47.54;34.00;63.16;;
63692;Laerm;49838;51.798;10.954;2023-05-07T04:38:34;39.88;33.72;58.24;;
63692;Laerm;49838;51.798;10.954;2023-05-07T04:41:03;39.62;32.35;58.62;;
63692;Laerm;49838;51.798;10.954;2023-05-07T04:43:31;47.18;32.52;60.89;;
63692;Laerm;49838;51.798;10.954;2023-05-07T04:45:58;47.16;34.11;63.57;;
63692;Laerm;49838;51.798;10.954;2023-05-07T04:48:25;40.34;34.14;59.39;;
63692;Laerm;49838;51.798;10.954;2023-05-07T04:50:54;40.17;33.85;57.34;;
63692;Laerm;49838;51.798;10.954;2023-05-07T04:53:21;52.72;33.60;71.51;;
63692;Laerm;49838;51.798;10.954;2023-05-07T04:55:54;41.99;33.36;53.87;;
63692;Laerm;49838;51.798;10.954;2023-05-07T04:58:22;40.97;33.29;51.31;;
63692;Laerm;49838;51.798;10.954;2023-05-07T05:00:49;40.43;33.46;51.47;;
63692;Laerm;49838;51.798;10.954;2023-05-07T05:03:17;40.83;34.94;51.49;;
63692;Laerm;49838;51.798;10.954;2023-05-07T05:05:44;40.65;33.19;57.24;;
63692;Laerm;49838;51.798;10.954;2023-05-07T05:08:13;42.05;36.17;53.18;;
63692;Laerm;49838;51.798;10.954;2023-05-07T05:10:40;40.78;32.54;52.37;;
63692;Laerm;49838;51.798;10.954;2023-05-07T05:13:09;41.51;33.00;59.57;;
63692;Laerm;49838;51.798;10.954;2023-05-07T05:15:38;40.83;32.45;61.44;;
63692;Laerm;49838;51.798;10.954;2023-05-07T05:18:06;47.14;33.18;63.66;;
63692;Laerm;49838;51.798;10.954;2023-05-07T05:20:33;38.69;32.30;55.70;;
63692;Laerm;49838;51.798;10.954;2023-05-07T05:23:00;44.26;35.60;61.42;;
63692;Laerm;49838;51.798;10.954;2023-05-07T05:25:29;45.19;33.17;59.15;;
63692;Laerm;49838;51.798;10.954;2023-05-07T05:27:57;42.06;32.71;54.70;;
63692;Laerm;49838;51.798;10.954;2023-05-07T05:30:25;50.10;33.94;68.18;;
63692;Laerm;49838;51.798;10.954;2023-05-07T05:32:52;42.97;34.00;55.46;;
63692;Laerm;49838;51.798;10.954;2023-05-07T05:35:19;43.34;33.65;57.55;;
63692;Laerm;49838;51.798;10.954;2023-05-07T05:37:47;44.06;33.38;57.32;;
63692;Laerm;49838;51.798;10.954;2023-05-07T05:40:14;41.99;33.51;60.13;;
63692;Laerm;49838;51.798;10.954;2023-05-07T05:42:43;52.84;35.24;70.97;;
63692;Laerm;49838;51.798;10.954;2023-05-07T05:45:10;57.91;34.14;77.20;;
63692;Laerm;49838;51.798;10.954;2023-05-07T05:47:38;53.01;33.27;71.94;;
63692;Laerm;49838;51.798;10.954;2023-05-07T05:50:08;54.39;35.32;73.27;;
63692;Laerm;49838;51.798;10.954;2023-05-07T05:52:36;50.41;35.69;67.74;;
63692;Laerm;49838;51.798;10.954;2023-05-07T05:55:04;43.17;34.42;57.09;;
63692;Laerm;49838;51.798;10.954;2023-05-07T05:57:31;56.49;34.99;75.69;;
63692;Laerm;49838;51.798;10.954;2023-05-07T06:00:00;41.81;34.84;56.82;;
63692;Laerm;49838;51.798;10.954;2023-05-07T06:02:28;46.96;34.89;64.00;;
63692;Laerm;49838;51.798;10.954;2023-05-07T06:04:56;42.72;33.75;56.54;;
63692;Laerm;49838;51.798;10.954;2023-05-07T06:07:23;49.06;34.56;65.92;;
63692;Laerm;49838;51.798;10.954;2023-05-07T06:09:50;52.83;34.54;69.54;;
63692;Laerm;49838;51.798;10.954;2023-05-07T06:12:17;48.38;35.41;62.26;;
63692;Laerm;49838;51.798;10.954;2023-05-07T06:14:45;50.02;34.08;66.13;;
63692;Laerm;49838;51.798;10.954;2023-05-07T06:17:13;53.08;35.75;69.11;;
63692;Laerm;49838;51.798;10.954;2023-05-07T06:19:41;54.02;35.85;72.94;;
63692;Laerm;49838;51.798;10.954;2023-05-07T06:22:08;44.01;35.35;62.93;;
63692;Laerm;49838;51.798;10.954;2023-05-07T06:24:36;41.82;34.90;53.22;;
63692;Laerm;49838;51.798;10.954;2023-05-07T06:27:03;41.01;35.23;53.13;;
63692;Laerm;49838;51.798;10.954;2023-05-07T06:29:30;55.06;36.21;72.12;;
63692;Laerm;49838;51.798;10.954;2023-05-07T06:32:06;60.94;36.22;81.78;;
63692;Laerm;49838;51.798;10.954;2023-05-07T06:34:35;45.25;36.89;59.14;;
63692;Laerm;49838;51.798;10.954;2023-05-07T06:37:02;49.09;36.39;68.46;;
63692;Laerm;49838;51.798;10.954;2023-05-07T06:39:29;50.69;36.00;75.35;;
63692;Laerm;49838;51.798;10.954;2023-05-07T06:41:57;53.09;36.19;74.33;;
63692;Laerm;49838;51.798;10.954;2023-05-07T06:44:24;50.60;37.80;73.78;;
63692;Laerm;49838;51.798;10.954;2023-05-07T06:46:52;55.70;39.89;71.23;;
63692;Laerm;49838;51.798;10.954;2023-05-07T06:49:19;53.37;36.13;69.59;;
63692;Laerm;49838;51.798;10.954;2023-05-07T06:51:48;55.26;37.06;70.27;;
63692;Laerm;49838;51.798;10.954;2023-05-07T06:54:16;50.98;36.85;65.46;;
63692;Laerm;49838;51.798;10.954;2023-05-07T06:56:44;56.28;37.15;73.68;;
63692;Laerm;49838;51.798;10.954;2023-05-07T06:59:11;56.99;37.57;74.08;;
63692;Laerm;49838;51.798;10.954;2023-05-07T07:01:39;55.99;36.36;74.28;;
63692;Laerm;49838;51.798;10.954;2023-05-07T07:04:06;60.77;37.92;78.10;;
63692;Laerm;49838;51.798;10.954;2023-05-07T07:06:33;49.78;37.79;71.91;;
63692;Laerm;49838;51.798;10.954;2023-05-07T07:09:02;43.53;36.05;58.16;;
63692;Laerm;49838;51.798;10.954;2023-05-07T07:11:29;43.23;37.93;57.44;;
63692;Laerm;49838;51.798;10.954;2023-05-07T07:13:57;54.69;38.84;72.56;;
63692;Laerm;49838;51.798;10.954;2023-05-07T07:16:24;53.56;38.57;66.43;;
63692;Laerm;49838;51.798;10.954;2023-05-07T07:18:52;43.06;35.44;57.95;;
63692;Laerm;49838;51.798;10.954;2023-05-07T07:21:19;45.16;36.18;63.39;;
63692;Laerm;49838;51.798;10.954;2023-05-07T07:23:47;50.52;39.11;67.14;;
63692;Laerm;49838;51.798;10.954;2023-05-07T07:26:15;57.31;39.19;75.63;;
63692;Laerm;49838;51.798;10.954;2023-05-07T07:28:43;43.48;37.29;59.54;;
63692;Laerm;49838;51.798;10.954;2023-05-07T07:31:11;52.56;38.52;68.90;;
63692;Laerm;49838;51.798;10.954;2023-05-07T07:33:38;59.96;40.82;73.23;;
63692;Laerm;49838;51.798;10.954;2023-05-07T07:36:06;53.03;38.99;70.88;;
63692;Laerm;49838;51.798;10.954;2023-05-07T07:38:34;44.86;37.07;60.56;;
63692;Laerm;49838;51.798;10.954;2023-05-07T07:41:02;56.62;37.38;70.79;;
63692;Laerm;49838;51.798;10.954;2023-05-07T07:43:31;58.83;39.27;70.99;;
63692;Laerm;49838;51.798;10.954;2023-05-07T07:45:58;52.82;39.56;70.32;;
63692;Laerm;49838;51.798;10.954;2023-05-07T07:48:26;55.17;40.45;72.17;;
63692;Laerm;49838;51.798;10.954;2023-05-07T07:50:53;54.87;41.12;69.42;;
63692;Laerm;49838;51.798;10.954;2023-05-07T07:53:21;54.61;40.14;67.25;;
63692;Laerm;49838;51.798;10.954;2023-05-07T07:55:55;59.02;44.63;71.01;;
63692;Laerm;49838;51.798;10.954;2023-05-07T07:58:26;55.85;40.77;73.35;;
63692;Laerm;49838;51.798;10.954;2023-05-07T08:00:55;59.55;39.34;74.79;;
63692;Laerm;49838;51.798;10.954;2023-05-07T08:03:22;55.76;38.49;74.77;;
63692;Laerm;49838;51.798;10.954;2023-05-07T08:05:49;56.36;40.07;71.96;;
63692;Laerm;49838;51.798;10.954;2023-05-07T08:08:17;57.71;42.36;73.18;;
63692;Laerm;49838;51.798;10.954;2023-05-07T08:10:44;54.05;39.06;68.88;;
63692;Laerm;49838;51.798;10.954;2023-05-07T08:13:15;49.68;38.87;66.06;;
63692;Laerm;49838;51.798;10.954;2023-05-07T08:15:43;53.58;40.39;68.50;;
63692;Laerm;49838;51.798;10.954;2023-05-07T08:18:11;48.78;38.75;65.26;;
63692;Laerm;49838;51.798;10.954;2023-05-07T08:20:39;54.90;40.74;70.12;;
63692;Laerm;49838;51.798;10.954;2023-05-07T08:23:10;51.36;40.50;66.53;;
63692;Laerm;49838;51.798;10.954;2023-05-07T08:25:52;55.86;40.60;77.75;;
63692;Laerm;49838;51.798;10.954;2023-05-07T08:31:01;61.97;44.21;80.41;;
63692;Laerm;49838;51.798;10.954;2023-05-07T08:33:29;59.89;42.57;71.69;;
63692;Laerm;49838;51.798;10.954;2023-05-07T08:35:57;58.46;43.12;73.17;;
63692;Laerm;49838;51.798;10.954;2023-05-07T08:38:24;56.00;40.29;70.93;;
63692;Laerm;49838;51.798;10.954;2023-05-07T08:40:55;55.80;38.24;72.43;;
63692;Laerm;49838;51.798;10.954;2023-05-07T08:43:26;63.72;40.78;93.63;;
63692;Laerm;49838;51.798;10.954;2023-05-07T08:45:54;51.88;42.79;66.31;;
63692;Laerm;49838;51.798;10.954;2023-05-07T08:48:27;51.84;41.87;68.49;;
63692;Laerm;49838;51.798;10.954;2023-05-07T08:50:58;59.00;41.98;70.83;;
63692;Laerm;49838;51.798;10.954;2023-05-07T08:53:26;52.66;39.74;68.41;;
63692;Laerm;49838;51.798;10.954;2023-05-07T08:55:53;55.77;40.46;71.19;;
63692;Laerm;49838;51.798;10.954;2023-05-07T08:58:43;51.68;40.31;67.39;;
63692;Laerm;49838;51.798;10.954;2023-05-07T09:01:16;58.60;40.96;74.41;;
63692;Laerm;49838;51.798;10.954;2023-05-07T09:03:51;60.20;42.40;73.60;;
63692;Laerm;49838;51.798;10.954;2023-05-07T09:06:20;55.76;42.35;74.05;;
63692;Laerm;49838;51.798;10.954;2023-05-07T09:08:52;56.43;41.43;69.63;;
63692;Laerm;49838;51.798;10.954;2023-05-07T09:11:20;56.53;41.38;77.44;;
63692;Laerm;49838;51.798;10.954;2023-05-07T09:14:01;50.74;40.98;71.09;;
63692;Laerm;49838;51.798;10.954;2023-05-07T09:16:32;56.10;41.89;76.66;;
63692;Laerm;49838;51.798;10.954;2023-05-07T09:19:06;53.10;40.96;67.48;;
63692;Laerm;49838;51.798;10.954;2023-05-07T09:21:40;55.01;42.15;71.54;;
63692;Laerm;49838;51.798;10.954;2023-05-07T09:24:08;55.16;40.66;70.11;;
63692;Laerm;49838;51.798;10.954;2023-05-07T09:26:36;54.02;41.13;72.22;;
63692;Laerm;49838;51.798;10.954;2023-05-07T09:29:06;51.15;42.06;70.49;;
63692;Laerm;49838;51.798;10.954;2023-05-07T09:31:36;53.63;40.98;70.61;;
63692;Laerm;49838;51.798;10.954;2023-05-07T09:34:06;61.53;42.16;80.48;;
63692;Laerm;49838;51.798;10.954;2023-05-07T09:36:45;60.73;42.35;74.42;;
63692;Laerm;49838;51.798;10.954;2023-05-07T09:39:12;56.66;42.06;72.32;;
63692;Laerm;49838;51.798;10.954;2023-05-07T09:41:44;59.00;43.33;71.07;;
63692;Laerm;49838;51.798;10.954;2023-05-07T09:44:20;59.11;42.12;73.40;;
63692;Laerm;49838;51.798;10.954;2023-05-07T09:46:57;51.33;41.34;66.23;;
63692;Laerm;49838;51.798;10.954;2023-05-07T09:49:29;56.17;40.92;70.24;;
63692;Laerm;49838;51.798;10.954;2023-05-07T09:52:13;57.85;40.68;73.07;;
63692;Laerm;49838;51.798;10.954;2023-05-07T09:54:45;53.94;43.11;67.81;;
63692;Laerm;49838;51.798;10.954;2023-05-07T09:57:14;56.54;42.13;71.02;;
63692;Laerm;49838;51.798;10.954;2023-05-07T09:59:49;54.40;39.69;73.99;;
63692;Laerm;49838;51.798;10.954;2023-05-07T10:02:17;53.01;39.89;71.54;;
63692;Laerm;49838;51.798;10.954;2023-05-07T10:04:50;55.54;41.75;73.94;;
63692;Laerm;49838;51.798;10.954;2023-05-07T10:07:29;50.34;40.30;68.77;;
63692;Laerm;49838;51.798;10.954;2023-05-07T10:09:59;57.46;40.49;74.66;;
63692;Laerm;49838;51.798;10.954;2023-05-07T10:12:35;53.74;40.94;74.69;;
63692;Laerm;49838;51.798;10.954;2023-05-07T10:15:13;52.96;40.31;71.67;;
63692;Laerm;49838;51.798;10.954;2023-05-07T10:17:51;56.29;42.37;73.77;;
63692;Laerm;49838;51.798;10.954;2023-05-07T10:20:20;57.74;41.79;73.35;;
63692;Laerm;49838;51.798;10.954;2023-05-07T10:22:50;51.09;40.08;69.06;;
63692;Laerm;49838;51.798;10.954;2023-05-07T10:25:22;53.00;40.80;73.62;;
63692;Laerm;49838;51.798;10.954;2023-05-07T10:27:51;53.56;40.16;68.67;;
63692;Laerm;49838;51.798;10.954;2023-05-07T10:30:26;60.97;43.48;83.00;;
63692;Laerm;49838;51.798;10.954;2023-05-07T10:32:59;59.65;44.27;70.83;;
63692;Laerm;49838;51.798;10.954;2023-05-07T10:35:36;59.29;43.01;74.13;;
63692;Laerm;49838;51.798;10.954;2023-05-07T10:38:06;56.70;42.43;69.54;;
63692;Laerm;49838;51.798;10.954;2023-05-07T10:40:34;47.88;40.70;61.72;;
63692;Laerm;49838;51.798;10.954;2023-05-07T10:43:02;59.21;41.70;72.36;;
63692;Laerm;49838;51.798;10.954;2023-05-07T10:45:31;48.85;39.84;62.00;;
63692;Laerm;49838;51.798;10.954;2023-05-07T10:48:06;57.46;41.88;69.85;;
63692;Laerm;49838;51.798;10.954;2023-05-07T10:50:33;55.36;38.99;72.00;;
63692;Laerm;49838;51.798;10.954;2023-05-07T10:53:24;52.09;40.18;65.82;;
63692;Laerm;49838;51.798;10.954;2023-05-07T10:56:23;52.64;41.19;69.90;;
63692;Laerm;49838;51.798;10.954;2023-05-07T10:58:57;51.50;42.22;66.84;;
63692;Laerm;49838;51.798;10.954;2023-05-07T11:01:53;58.73;42.46;73.54;;
63692;Laerm;49838;51.798;10.954;2023-05-07T11:04:21;53.03;42.20;71.34;;
63692;Laerm;49838;51.798;10.954;2023-05-07T11:10:03;59.07;42.79;72.62;;
63692;Laerm;49838;51.798;10.954;2023-05-07T11:12:54;56.67;42.21;72.31;;
63692;Laerm;49838;51.798;10.954;2023-05-07T11:15:41;53.73;40.35;70.96;;
63692;Laerm;49838;51.798;10.954;2023-05-07T11:18:12;49.71;40.63;64.80;;
63692;Laerm;49838;51.798;10.954;2023-05-07T11:20:55;57.50;41.70;71.70;;
63692;Laerm;49838;51.798;10.954;2023-05-07T11:23:58;57.33;41.28;75.06;;
63692;Laerm;49838;51.798;10.954;2023-05-07T11:26:29;54.07;40.88;69.37;;
63692;Laerm;49838;51.798;10.954;2023-05-07T11:28:57;55.02;40.83;71.64;;
63692;Laerm;49838;51.798;10.954;2023-05-07T11:31:27;57.71;40.85;74.96;;
63692;Laerm;49838;51.798;10.954;2023-05-07T11:33:55;60.14;42.10;74.83;;
63692;Laerm;49838;51.798;10.954;2023-05-07T11:36:23;53.21;41.52;72.52;;
63692;Laerm;49838;51.798;10.954;2023-05-07T11:38:52;51.68;42.24;69.27;;
63692;Laerm;49838;51.798;10.954;2023-05-07T11:41:19;60.07;43.73;71.67;;
63692;Laerm;49838;51.798;10.954;2023-05-07T11:43:59;59.23;43.01;74.42;;
63692;Laerm;49838;51.798;10.954;2023-05-07T11:46:27;55.04;41.48;70.44;;
63692;Laerm;49838;51.798;10.954;2023-05-07T11:48:55;54.49;40.83;71.97;;
63692;Laerm;49838;51.798;10.954;2023-05-07T11:51:24;58.25;40.75;72.43;;
63692;Laerm;49838;51.798;10.954;2023-05-07T11:53:52;56.14;42.00;72.98;;
63692;Laerm;49838;51.798;10.954;2023-05-07T11:56:20;58.10;42.97;72.70;;
63692;Laerm;49838;51.798;10.954;2023-05-07T11:58:48;54.86;42.53;68.97;;
63692;Laerm;49838;51.798;10.954;2023-05-07T12:01:19;48.20;40.62;64.22;;
63692;Laerm;49838;51.798;10.954;2023-05-07T12:03:46;58.67;41.22;72.52;;
63692;Laerm;49838;51.798;10.954;2023-05-07T12:06:15;59.74;41.08;73.89;;
63692;Laerm;49838;51.798;10.954;2023-05-07T12:08:43;56.95;40.12;73.22;;
63692;Laerm;49838;51.798;10.954;2023-05-07T12:11:13;53.93;40.77;70.24;;
63692;Laerm;49838;51.798;10.954;2023-05-07T12:13:42;59.50;40.98;73.75;;
63692;Laerm;49838;51.798;10.954;2023-05-07T12:16:09;52.08;40.00;68.84;;
63692;Laerm;49838;51.798;10.954;2023-05-07T12:18:39;56.40;40.09;73.21;;
63692;Laerm;49838;51.798;10.954;2023-05-07T12:21:07;56.32;42.39;71.34;;
63692;Laerm;49838;51.798;10.954;2023-05-07T12:23:35;54.81;41.82;75.03;;
63692;Laerm;49838;51.798;10.954;2023-05-07T12:26:03;55.56;41.80;72.81;;
63692;Laerm;49838;51.798;10.954;2023-05-07T12:28:32;56.60;41.46;73.37;;
63692;Laerm;49838;51.798;10.954;2023-05-07T12:31:03;59.88;42.14;72.15;;
63692;Laerm;49838;51.798;10.954;2023-05-07T12:33:31;61.78;41.40;82.16;;
63692;Laerm;49838;51.798;10.954;2023-05-07T12:36:03;51.09;40.45;72.85;;
63692;Laerm;49838;51.798;10.954;2023-05-07T12:38:36;55.54;40.45;72.73;;
63692;Laerm;49838;51.798;10.954;2023-05-07T12:41:04;55.03;42.25;71.62;;
63692;Laerm;49838;51.798;10.954;2023-05-07T12:43:33;56.38;40.90;75.27;;
63692;Laerm;49838;51.798;10.954;2023-05-07T12:46:01;58.20;41.85;73.49;;
63692;Laerm;49838;51.798;10.954;2023-05-07T12:48:30;55.14;42.47;69.53;;
63692;Laerm;49838;51.798;10.954;2023-05-07T12:51:00;55.57;40.48;72.25;;
63692;Laerm;49838;51.798;10.954;2023-05-07T12:53:29;57.26;39.81;73.17;;
63692;Laerm;49838;51.798;10.954;2023-05-07T12:55:58;60.34;40.71;75.58;;
63692;Laerm;49838;51.798;10.954;2023-05-07T12:58:28;59.35;42.01;72.97;;
63692;Laerm;49838;51.798;10.954;2023-05-07T13:00:59;54.45;42.00;74.28;;
63692;Laerm;49838;51.798;10.954;2023-05-07T13:03:29;55.72;40.68;75.00;;
63692;Laerm;49838;51.798;10.954;2023-05-07T13:05:58;49.35;40.67;71.91;;
63692;Laerm;49838;51.798;10.954;2023-05-07T13:08:30;58.45;42.19;73.58;;
63692;Laerm;49838;51.798;10.954;2023-05-07T13:10:58;55.60;41.22;74.33;;
63692;Laerm;49838;51.798;10.954;2023-05-07T13:13:26;52.94;38.91;70.97;;
63692;Laerm;49838;51.798;10.954;2023-05-07T13:15:53;54.65;40.81;70.65;;
63692;Laerm;49838;51.798;10.954;2023-05-07T13:18:20;56.76;40.84;71.96;;
63692;Laerm;49838;51.798;10.954;2023-05-07T13:20:47;56.63;41.36;71.98;;
63692;Laerm;49838;51.798;10.954;2023-05-07T13:23:15;52.55;40.80;69.20;;
63692;Laerm;49838;51.798;10.954;2023-05-07T13:25:44;51.31;41.30;67.21;;
63692;Laerm;49838;51.798;10.954;2023-05-07T13:28:11;59.99;42.45;74.40;;
63692;Laerm;49838;51.798;10.954;2023-05-07T13:30:39;58.27;41.64;78.28;;
63692;Laerm;49838;51.798;10.954;2023-05-07T13:33:06;54.31;39.73;81.20;;
63692;Laerm;49838;51.798;10.954;2023-05-07T13:35:34;59.68;42.41;73.12;;
63692;Laerm;49838;51.798;10.954;2023-05-07T13:38:01;57.14;39.75;74.00;;
63692;Laerm;49838;51.798;10.954;2023-05-07T13:40:28;53.58;39.72;71.69;;
63692;Laerm;49838;51.798;10.954;2023-05-07T13:42:58;54.98;40.98;71.84;;
63692;Laerm;49838;51.798;10.954;2023-05-07T13:45:28;48.36;39.39;69.13;;
63692;Laerm;49838;51.798;10.954;2023-05-07T13:47:56;50.09;40.32;66.39;;